地図

経路データ

SID SEASON NUMBER BASIN SUBBASIN NAME ISO_TIME NATURE LAT LON WMO_WIND WMO_PRES WMO_AGENCY TRACK_TYPE DIST2LAND LANDFALL IFLAG USA_AGENCY USA_ATCF_ID USA_LAT USA_LON USA_RECORD USA_STATUS USA_WIND USA_PRES USA_SSHS USA_R34_NE USA_R34_SE USA_R34_SW USA_R34_NW USA_R50_NE USA_R50_SE USA_R50_SW USA_R50_NW USA_R64_NE USA_R64_SE USA_R64_SW USA_R64_NW USA_POCI USA_ROCI USA_RMW USA_EYE TOKYO_LAT TOKYO_LON TOKYO_GRADE TOKYO_WIND TOKYO_PRES TOKYO_R50_DIR TOKYO_R50_LONG TOKYO_R50_SHORT TOKYO_R30_DIR TOKYO_R30_LONG TOKYO_R30_SHORT TOKYO_LAND CMA_LAT CMA_LON CMA_CAT CMA_WIND CMA_PRES HKO_LAT HKO_LON HKO_CAT HKO_WIND HKO_PRES NEWDELHI_LAT NEWDELHI_LON NEWDELHI_GRADE NEWDELHI_WIND NEWDELHI_PRES NEWDELHI_CI NEWDELHI_DP NEWDELHI_POCI REUNION_LAT REUNION_LON REUNION_TYPE REUNION_WIND REUNION_PRES REUNION_TNUM REUNION_CI REUNION_RMW REUNION_R34_NE REUNION_R34_SE REUNION_R34_SW REUNION_R34_NW REUNION_R50_NE REUNION_R50_SE REUNION_R50_SW REUNION_R50_NW REUNION_R64_NE REUNION_R64_SE REUNION_R64_SW REUNION_R64_NW BOM_LAT BOM_LON BOM_TYPE BOM_WIND BOM_PRES BOM_TNUM BOM_CI BOM_RMW BOM_R34_NE BOM_R34_SE BOM_R34_SW BOM_R34_NW BOM_R50_NE BOM_R50_SE BOM_R50_SW BOM_R50_NW BOM_R64_NE BOM_R64_SE BOM_R64_SW BOM_R64_NW BOM_ROCI BOM_POCI BOM_EYE BOM_POS_METHOD BOM_PRES_METHOD NADI_LAT NADI_LON NADI_CAT NADI_WIND NADI_PRES WELLINGTON_LAT WELLINGTON_LON WELLINGTON_WIND WELLINGTON_PRES DS824_LAT DS824_LON DS824_STAGE DS824_WIND DS824_PRES TD9636_LAT TD9636_LON TD9636_STAGE TD9636_WIND TD9636_PRES TD9635_LAT TD9635_LON TD9635_WIND TD9635_PRES TD9635_ROCI NEUMANN_LAT NEUMANN_LON NEUMANN_CLASS NEUMANN_WIND NEUMANN_PRES MLC_LAT MLC_LON MLC_CLASS MLC_WIND MLC_PRES USA_GUST BOM_GUST BOM_GUST_PER REUNION_GUST REUNION_GUST_PER USA_SEAHGT USA_SEARAD_NE USA_SEARAD_SE USA_SEARAD_SW USA_SEARAD_NW STORM_SPEED STORM_DIR
1918074S17162 1918 21 SP MM NOT_NAMED 1918-03-14 23:00:00 NR -16.7000 161.500 bom main 478 468 ______O_______ -1 -16.7000 161.500 12 210
1918074S17162 1918 21 SP MM NOT_NAMED 1918-03-15 00:00:00 TS -16.8749 161.396 main 466 445 ______P__O____ -1 -16.8624 161.395 -16.9000 161.400 TC 12 210
1918074S17162 1918 21 SP MM NOT_NAMED 1918-03-15 03:00:00 TS -17.3756 161.099 main 444 429 ______P__P____ -1 -17.3504 161.078 -17.4136 161.131 TC 12 209
1918074S17162 1918 21 SP MM NOT_NAMED 1918-03-15 06:00:00 TS -17.8780 160.805 main 430 421 ______P__P____ -1 -17.8412 160.764 -17.9271 160.860 TC 12 208
1918074S17162 1918 21 SP MM NOT_NAMED 1918-03-15 09:00:00 TS -18.3889 160.522 main 424 417 ______P__P____ -1 -18.3374 160.457 -18.4404 160.588 TC 12 208
1918074S17162 1918 21 SP MM NOT_NAMED 1918-03-15 12:00:00 TS -18.8975 160.236 main 427 423 ______P__P____ -1 -18.8416 160.159 -18.9534 160.313 TC 12 208
1918074S17162 1918 21 SP EA NOT_NAMED 1918-03-15 15:00:00 TS -19.4111 159.955 main 430 430 ______P__P____ -1 -19.3562 159.873 -19.4660 160.038 TC 12 207
1918074S17162 1918 21 SP EA NOT_NAMED 1918-03-15 18:00:00 TS -19.9310 159.682 main 451 450 ______P__P____ -1 -19.8840 159.604 -19.9780 159.760 TC 12 206
1918074S17162 1918 21 SP EA NOT_NAMED 1918-03-15 21:00:00 TS -20.4585 159.417 main 479 479 ______P__P____ -1 -20.4275 159.354 -20.4894 159.481 TC 12 205
1918074S17162 1918 21 SP EA NOT_NAMED 1918-03-15 23:00:00 TS -20.8149 159.247 bom main 502 502 ______O__P____ -1 -20.8000 159.200 -20.8299 159.294 TC 12 204
1918074S17162 1918 21 SP EA NOT_NAMED 1918-03-16 00:00:00 TS -20.9947 159.164 main 505 505 ______P__O____ -1 -20.9895 159.127 -21.0000 159.200 TC 11 189
1918074S17162 1918 21 SP EA NOT_NAMED 1918-03-16 03:00:00 TS -21.5521 159.129 main 529 529 ______P__P____ -1 -21.5666 158.937 -21.5376 159.322 TC 11 182
1918074S17162 1918 21 SP EA NOT_NAMED 1918-03-16 06:00:00 TS -22.1108 159.128 main 546 546 ______P__P____ -1 -22.1462 158.812 -22.0753 159.444 TC 11 178
1918074S17162 1918 21 SP EA NOT_NAMED 1918-03-16 09:00:00 TS -22.6641 159.175 main 564 564 ______P__P____ -1 -22.7151 158.783 -22.6132 159.568 TC 11 174
1918074S17162 1918 21 SP EA NOT_NAMED 1918-03-16 10:00:00 TS -22.8462 159.204 bom main 569 569 ______O__P____ -1 -22.9000 158.800 -22.7924 159.609 TC 11 171
1918074S17162 1918 21 SP EA NOT_NAMED 1918-03-16 12:00:00 TS -23.2037 159.275 main 583 583 ______P__P____ -1 -23.2564 158.858 -23.1510 159.692 TC 11 167
1918074S17162 1918 21 SP EA NOT_NAMED 1918-03-16 15:00:00 TS -23.7315 159.430 main 607 605 ______P__P____ -1 -23.7743 159.042 -23.6887 159.817 TC 11 162
1918074S17162 1918 21 SP EA NOT_NAMED 1918-03-16 18:00:00 TS -24.2519 159.637 main 629 621 ______P__P____ -1 -24.2777 159.330 -24.2261 159.944 TC 11 159
1918074S17162 1918 21 SP EA NOT_NAMED 1918-03-16 21:00:00 TS -24.7684 159.863 main 636 635 ______P__P____ -1 -24.7723 159.706 -24.7633 160.071 TC 11 156
1918074S17162 1918 21 SP MM NOT_NAMED 1918-03-16 23:00:00 TS -25.1070 160.052 985 bom main 641 641 ______O__P____ -1 -25.1000 160.000 985 4 -25.1211 160.157 TC 12 152
1918074S17162 1918 21 SP MM NOT_NAMED 1918-03-17 00:00:00 TS -25.2711 160.166 main 647 647 ______P__O____ -1 -25.2639 160.158 -25.3000 160.200 TC 55 985 13 139
1918074S17162 1918 21 SP MM NOT_NAMED 1918-03-17 03:00:00 NR -25.7558 160.668 main 651 645 ______P_______ -1 -25.7558 160.668 TC 14 136
1918074S17162 1918 21 SP MM NOT_NAMED 1918-03-17 06:00:00 NR -26.2473 161.222 main 655 655 ______P_______ -1 -26.2473 161.222 TC 14 134
1918074S17162 1918 21 SP MM NOT_NAMED 1918-03-17 09:00:00 NR -26.7372 161.803 main 670 670 ______P_______ -1 -26.7372 161.803 TC 14 133
1918074S17162 1918 21 SP MM NOT_NAMED 1918-03-17 10:00:00 NR -26.9000 162.000 bom main 677 ______O_______ -1 -26.9000 162.000 TC 14 133

デジタル台風データ・検索

IBTrACS Databaseについて

本データベースは、米国NOAAが公開する1842年以降の世界の熱帯低気圧のベストトラックデータアーカイブInternational Best Track Archive for Climate Stewardship (IBTrACS)を、ウェブで閲覧しやすい形式に変換したものです。

最終更新日:2021-10-21